Hlavní strana
METAR-TAF:

METAR-TAF

Letiště :

Džíbútí, Džibutsko

zeměpisná šířka: 11-33N, zeměpisná délka: 043-10E, výška: 49 m

Aktuální stav počasí

Zpráva byla vytvořena před 39 minutami, v 06:00 UTC
Severovýchodní vítr 9 kt
Teplota 35°C
Vlhkost vzduchu 60%
Tlak 1006 hPa
Viditelnost: 8000 m
Polojasno ve výšce 13300 ft
Skoro jasno ve výšce 26600 ft
zákal,

METAR: HDAM 190600Z 05009KT 8000 HZ SCT133 FEW266 35/26 Q1006

Čas: 09:39 (06:39 UTC)

Předpověď počasí

Zpráva byla vytvořena před 7 hodinami a 39 minutami, v 23:00 UTC
Předpověď platná od 19 v 00 UTC do 19 v 24 UTC
Západní vítr 4 kt
Viditelnost: 9000 m
Polojasno ve výšce 13300 ft
zákal
Změna
od 19 v 06 UTC do 19 v 12 UTC
Východní vítr 12 kt
Viditelnost 10 km a více
Skoro jasno ve výšce 13300 ft
Změna
od 19 v 18 UTC do 19 v 21 UTC
vítr z různých směrů 5 kt
Skoro jasno ve výšce 13300 ft

TAF: HDAM 182300Z 1900/1924 28004KT 9000 HZ SCT133 BECMG 1906/1912 08012KT 9999 NSW FEW133 BECMG 1918/1921 VRB05KT FEW133

Stav a předpovědi počasí z více než 4 000 letišť (zprávy METAR a TAF).

Červené a žluté tečky na mapě představují dostupné meteorologické stanice.

Když kurzor umístíte na tečku, zobrazí se název stanice.

Pak kliknutím zobrazíte stav a předpověď počasí.

Chcete-li změnit mapu, kliknutím na zelené tlačítko se znaménkem +mapu přiblížíte, kliknutím na zelené tlačítko se znaménkem – mapu oddálíte a kliknutím na zelené šipky přejdete na sousední mapy.


METAR-TAF: